Time;durP1;ratioP1;P1;durP2;ratioP2;P2;SDS_P1;SDS_P2;PMS_P1;PMS_P2;Temp;Humidity;BMP_temperature;BMP_pressure;BME280_temperature;BME280_humidity;BME280_pressure;Samples;Min_cycle;Max_cycle;Signal;HPM_P1;HPM_P2
2021/10/10 10:57:53;;;;;;;;;;;;;;;11.28;58.13;100654.91;5111954;27;19920;-70
2021/10/10 11:00:24;;;;;;;;;;;;;;;11.53;58.15;100650.94;5112184;28;19990;-70
2021/10/10 11:03:01;;;;;;;;;;;;;;;11.77;57.21;100636.75;5111854;28;20007;-69
2021/10/10 11:05:31;;;;;;;;;;;;;;;11.94;56.22;100639.47;5111669;28;20324;-70
2021/10/10 11:08:00;;;;;;;;;;;;;;;12.02;56.33;100637.84;5111633;28;19924;-70
2021/10/10 11:10:29;;;;;;;;;;;;;;;11.96;55.41;100638.63;5111253;28;20374;-70
2021/10/10 11:13:19;;;;;;;;;;;;;;;12.14;55.12;100631.97;5111564;28;19974;-70
2021/10/10 11:15:52;;;;;;;;;;;;;;;12.28;54.95;100627.81;5111423;28;20352;-70
2021/10/10 11:18:21;;;;;;;;;;;;;;;12.33;54.75;100619.31;5112200;28;20435;-70
2021/10/10 11:20:51;;;;;;;;;;;;;;;12.39;54.46;100626.16;5111498;28;19924;-70
2021/10/10 11:23:19;;;;;;;;;;;;;;;12.50;54.65;100624.56;5111548;28;19970;-69
2021/10/10 11:25:49;;;;;;;;;;;;;;;12.58;54.54;100617.75;5111402;28;19969;-70
2021/10/10 11:28:20;;;;;;;;;;;;;;;12.68;54.87;100616.97;5111342;28;19974;-70
2021/10/10 11:30:49;;;;;;;;;;;;;;;12.70;54.98;100620.38;5111624;28;19931;-70
2021/10/10 11:33:18;;;;;;;;;;;;;;;12.48;54.31;100613.41;5111301;28;19931;-69
2021/10/10 11:35:51;;;;;;;;;;;;;;;12.31;54.35;100600.50;5111294;28;19963;-69
2021/10/10 11:38:19;;;;;;;;;;;;;;;12.42;54.91;100608.28;5111484;28;19924;-69
2021/10/10 11:41:00;;;;;;;;;;;;;;;12.55;54.82;100599.81;5111126;28;19932;-71
2021/10/10 11:43:30;;;;;;;;;;;;;;;12.66;55.23;100603.31;5112594;28;20311;-70
2021/10/10 11:45:59;;;;;;;;;;;;;;;12.73;55.37;100599.94;5111363;28;19932;-69
2021/10/10 11:48:38;;;;;;;;;;;;;;;12.84;55.63;100605.94;5110909;28;19924;-69
2021/10/10 11:51:25;;;;;;;;;;;;;;;12.83;55.79;100596.56;5111198;28;19927;-71
2021/10/10 11:53:53;;;;;;;;;;;;;;;12.85;56.22;100589.75;5110909;28;19924;-70
2021/10/10 11:56:22;;;;;;;;;;;;;;;12.84;56.37;100588.00;5119549;28;19924;-70
2021/10/10 11:58:52;;;;;;;;;;;;;;;12.96;56.62;100577.81;5131158;28;20362;-70
2021/10/10 12:01:22;;;;;;;;;;;;;;;12.97;56.23;100573.56;5131356;28;19924;-69
2021/10/10 12:03:51;;;;;;;;;;;;;;;13.09;56.36;100574.50;5131067;28;20011;-69
2021/10/10 12:06:20;;;;;;;;;;;;;;;13.14;55.69;100562.56;5130909;28;20315;-70
2021/10/10 12:08:49;;;;;;;;;;;;;;;13.27;55.39;100548.91;5118896;28;19923;-69
2021/10/10 12:11:17;;;;;;;;;;;;;;;13.54;54.86;100549.78;5117518;28;19924;-70
2021/10/10 12:13:54;;;;;;;;;;;;;;;13.67;53.88;100551.53;5117216;28;19923;-70
2021/10/10 12:16:23;;;;;;;;;;;;;;;13.78;53.43;100548.13;5117475;28;19930;-70
2021/10/10 12:18:57;;;;;;;;;;;;;;;14.16;52.88;100549.81;5117342;28;19928;-70
2021/10/10 12:21:27;;;;;;;;;;;;;;;14.43;51.83;100542.94;5117071;28;20331;-71
2021/10/10 12:24:06;;;;;;;;;;;;;;;14.43;51.82;100540.38;5117366;28;20358;-69
2021/10/10 12:26:45;;;;;;;;;;;;;;;14.59;52.52;100536.88;5116961;28;19931;-70
2021/10/10 12:29:22;;;;;;;;;;;;;;;14.76;53.04;100535.13;5117369;28;19931;-69
2021/10/10 12:31:51;;;;;;;;;;;;;;;14.81;50.91;100526.53;5116997;28;20018;-70
2021/10/10 12:34:19;;;;;;;;;;;;;;;14.83;50.15;100529.97;5117118;28;19923;-69
2021/10/10 12:36:49;;;;;;;;;;;;;;;14.96;49.72;100524.75;5117056;28;20281;-70
2021/10/10 12:39:18;;;;;;;;;;;;;;;14.92;48.99;100525.63;5117025;28;19924;-69
2021/10/10 12:41:57;;;;;;;;;;;;;;;14.90;49.55;100521.38;5116676;28;20274;-69
2021/10/10 12:44:27;;;;;;;;;;;;;;;14.91;49.86;100513.63;5116986;28;19924;-69
2021/10/10 12:46:56;;;;;;;;;;;;;;;14.95;50.54;100519.63;5116490;28;19923;-69
2021/10/10 12:49:29;;;;;;;;;;;;;;;14.93;49.56;100518.75;5116541;28;19924;-69
2021/10/10 12:51:58;;;;;;;;;;;;;;;14.75;49.29;100518.00;5116811;28;20369;-69
2021/10/10 12:54:27;;;;;;;;;;;;;;;14.72;49.04;100518.00;5116471;28;19931;-70
2021/10/10 12:57:01;;;;;;;;;;;;;;;14.97;49.51;100507.63;5116064;28;19954;-69
2021/10/10 12:59:34;;;;;;;;;;;;;;;14.96;49.61;100508.47;5116432;28;19993;-69
2021/10/10 13:02:06;;;;;;;;;;;;;;;14.86;49.42;100511.94;5116360;28;19927;-69
2021/10/10 13:04:39;;;;;;;;;;;;;;;14.82;49.29;100508.53;5116289;28;20018;-70
2021/10/10 13:07:15;;;;;;;;;;;;;;;14.81;49.42;100508.53;5116868;28;19962;-69
2021/10/10 13:09:44;;;;;;;;;;;;;;;14.69;49.28;100512.88;5116403;28;19924;-69
2021/10/10 13:12:12;;;;;;;;;;;;;;;14.65;49.25;100511.19;5116464;28;19924;-69
2021/10/10 13:14:47;;;;;;;;;;;;;;;14.61;49.30;100514.59;5116327;28;19923;-69
2021/10/10 13:17:16;;;;;;;;;;;;;;;14.58;48.70;100512.06;5116199;28;20319;-69
2021/10/10 13:19:44;;;;;;;;;;;;;;;14.60;49.32;100506.91;5115290;28;20323;-69
2021/10/10 13:22:13;;;;;;;;;;;;;;;14.59;49.32;100505.19;5115920;28;19970;-69
2021/10/10 13:24:42;;;;;;;;;;;;;;;14.55;48.88;100503.50;5115876;28;19938;-69
2021/10/10 13:27:14;;;;;;;;;;;;;;;14.46;48.53;100503.53;5116168;28;19927;-69
2021/10/10 13:29:43;;;;;;;;;;;;;;;14.43;48.90;100499.28;5115745;28;19923;-70
2021/10/10 13:32:14;;;;;;;;;;;;;;;14.39;48.32;100505.28;5115931;28;20258;-69
2021/10/10 13:34:45;;;;;;;;;;;;;;;14.33;48.09;100507.84;5097845;28;19970;-69
2021/10/10 13:37:13;;;;;;;;;;;;;;;14.25;48.33;100504.44;5115870;28;20373;-69
2021/10/10 13:39:42;;;;;;;;;;;;;;;14.20;48.67;100501.03;5097671;28;20277;-69
2021/10/10 13:42:11;;;;;;;;;;;;;;;14.22;48.94;100499.31;5115534;28;19923;-69
2021/10/10 13:44:40;;;;;;;;;;;;;;;14.25;48.84;100503.59;5115477;28;19923;-69
2021/10/10 13:47:09;;;;;;;;;;;;;;;14.14;49.61;100501.03;5115352;28;19931;-68
2021/10/10 13:49:48;;;;;;;;;;;;;;;14.06;49.85;100502.75;5115314;28;19963;-69
2021/10/10 13:52:17;;;;;;;;;;;;;;;13.98;50.25;100496.78;5115315;28;19924;-70
2021/10/10 13:54:47;;;;;;;;;;;;;;;14.00;50.60;100500.19;5114864;28;20018;-69
2021/10/10 13:57:16;;;;;;;;;;;;;;;14.03;50.08;100495.94;5114759;28;19924;-69
2021/10/10 13:59:44;;;;;;;;;;;;;;;14.03;49.38;100495.06;5115365;28;19924;-69
2021/10/10 14:02:13;;;;;;;;;;;;;;;13.93;48.08;100489.09;5114739;28;19924;-69
2021/10/10 14:04:47;;;;;;;;;;;;;;;13.90;48.05;100493.34;5115016;28;19923;-69
2021/10/10 14:07:16;;;;;;;;;;;;;;;13.83;47.82;100494.22;5115107;28;19924;-69
2021/10/10 14:09:47;;;;;;;;;;;;;;;13.74;47.78;100494.25;5115191;28;19923;-69
2021/10/10 14:12:17;;;;;;;;;;;;;;;13.72;47.48;100485.69;5115049;28;19969;-69
2021/10/10 14:14:46;;;;;;;;;;;;;;;13.70;47.36;100482.28;5115440;28;20432;-69
2021/10/10 14:17:15;;;;;;;;;;;;;;;13.71;47.26;100483.97;5114729;28;19923;-69
2021/10/10 14:19:48;;;;;;;;;;;;;;;13.70;47.26;100477.97;5115148;28;19975;-69
2021/10/10 14:22:21;;;;;;;;;;;;;;;13.75;47.44;100475.44;5114724;28;19924;-69
2021/10/10 14:24:53;;;;;;;;;;;;;;;13.76;47.21;100472.00;5114813;28;19927;-69
2021/10/10 14:27:22;;;;;;;;;;;;;;;13.77;46.84;100469.41;5114723;28;19924;-69
2021/10/10 14:29:54;;;;;;;;;;;;;;;13.76;47.28;100472.00;5114642;28;19961;-69
2021/10/10 14:32:23;;;;;;;;;;;;;;;13.76;47.08;100477.13;5114389;28;19939;-69
2021/10/10 14:34:56;;;;;;;;;;;;;;;13.75;47.79;100465.16;5114883;28;19924;-69
2021/10/10 14:37:25;;;;;;;;;;;;;;;13.76;48.24;100466.88;5114570;28;19963;-69
2021/10/10 14:39:56;;;;;;;;;;;;;;;13.80;48.29;100473.69;5114496;28;19969;-69
2021/10/10 14:42:33;;;;;;;;;;;;;;;13.77;48.61;100459.16;5114620;28;20014;-69
2021/10/10 14:45:10;;;;;;;;;;;;;;;13.74;48.62;100464.31;5114529;28;19924;-69
2021/10/10 14:50:19;;;;;;;;;;;;;;;13.74;49.31;100463.44;5114432;28;20014;-69
2021/10/10 14:52:48;;;;;;;;;;;;;;;13.76;49.48;100472.00;5114302;28;20006;-69
2021/10/10 14:55:16;;;;;;;;;;;;;;;13.77;49.11;100463.44;5114647;28;19923;-69
2021/10/10 14:57:50;;;;;;;;;;;;;;;13.75;48.89;100454.91;5073675;28;19928;-69
2021/10/10 15:00:22;;;;;;;;;;;;;;;13.70;48.89;100454.06;5074468;28;19925;-69
2021/10/10 15:02:54;;;;;;;;;;;;;;;13.72;49.08;100447.22;5073625;28;20020;-69
2021/10/10 15:05:26;;;;;;;;;;;;;;;13.68;50.02;100448.03;5073741;28;19928;-69
2021/10/10 15:08:02;;;;;;;;;;;;;;;13.65;49.96;100442.94;5073750;28;19924;-69
2021/10/10 15:10:31;;;;;;;;;;;;;;;13.64;49.45;100431.81;5074031;28;19924;-69
2021/10/10 15:13:00;;;;;;;;;;;;;;;13.63;49.11;100439.53;5073703;28;19994;-69
2021/10/10 15:15:33;;;;;;;;;;;;;;;13.64;49.21;100430.97;5073756;28;19974;-69
2021/10/10 15:18:01;;;;;;;;;;;;;;;13.63;50.27;100424.97;5073637;28;20297;-69
2021/10/10 15:20:32;;;;;;;;;;;;;;;13.63;49.89;100424.13;5073456;28;20324;-69
2021/10/10 15:23:00;;;;;;;;;;;;;;;13.60;49.66;100429.25;5073580;28;19965;-69
2021/10/10 15:25:30;;;;;;;;;;;;;;;13.54;49.80;100424.97;5073833;28;20263;-69
2021/10/10 15:28:01;;;;;;;;;;;;;;;13.53;50.24;100422.44;5073386;28;19924;-69
2021/10/10 15:30:30;;;;;;;;;;;;;;;13.53;50.33;100427.56;5073550;28;19924;-69
2021/10/10 15:33:14;;;;;;;;;;;;;;;13.53;50.04;100425.00;5073488;28;19932;-69
2021/10/10 15:35:44;;;;;;;;;;;;;;;13.52;50.36;100420.72;5073393;28;19931;-69
2021/10/10 15:38:12;;;;;;;;;;;;;;;13.52;50.39;100418.16;5073484;28;19924;-69
2021/10/10 15:40:42;;;;;;;;;;;;;;;13.47;50.69;100412.16;5073333;28;19928;-69
2021/10/10 15:43:11;;;;;;;;;;;;;;;13.43;51.84;100414.75;5074881;28;20294;-69
2021/10/10 15:45:42;;;;;;;;;;;;;;;13.43;52.24;100409.63;5077113;28;19929;-69
2021/10/10 15:48:14;;;;;;;;;;;;;;;13.36;52.68;100404.50;5076993;28;19948;-69
2021/10/10 15:50:45;;;;;;;;;;;;;;;13.28;53.50;100407.06;5075628;28;20271;-69
2021/10/10 15:53:15;;;;;;;;;;;;;;;13.19;54.92;100404.50;5076840;28;19936;-69
2021/10/10 15:55:44;;;;;;;;;;;;;;;13.14;55.15;100403.63;5083176;28;19985;-69
2021/10/10 15:58:12;;;;;;;;;;;;;;;13.16;54.81;100404.47;5117577;28;19945;-69
2021/10/10 16:00:42;;;;;;;;;;;;;;;13.16;55.06;100407.03;5117154;28;20022;-69
2021/10/10 16:03:11;;;;;;;;;;;;;;;13.13;55.22;100401.06;5117318;28;19924;-69
2021/10/10 16:05:48;;;;;;;;;;;;;;;13.09;55.46;100407.91;5117357;28;19969;-69
2021/10/10 16:08:19;;;;;;;;;;;;;;;13.01;56.15;100401.88;5117340;28;20427;-69
2021/10/10 16:10:49;;;;;;;;;;;;;;;12.88;56.58;100405.28;5117358;28;20015;-69
2021/10/10 16:13:18;;;;;;;;;;;;;;;12.83;57.11;100401.00;5117610;28;20384;-69
2021/10/10 16:15:47;;;;;;;;;;;;;;;12.75;57.25;100403.53;5116879;28;19928;-69
2021/10/10 16:18:16;;;;;;;;;;;;;;;12.71;56.87;100404.41;5117077;28;19947;-70
2021/10/10 16:20:45;;;;;;;;;;;;;;;12.63;57.29;100413.75;5117144;28;19924;-69
2021/10/10 16:23:14;;;;;;;;;;;;;;;12.49;58.30;100405.19;5132912;27;20011;-69
2021/10/10 16:25:44;;;;;;;;;;;;;;;12.38;59.59;100411.97;5116921;28;20026;-69
2021/10/10 16:28:13;;;;;;;;;;;;;;;12.18;60.73;100413.59;5117354;28;20267;-69
2021/10/10 16:30:43;;;;;;;;;;;;;;;12.06;61.53;100415.25;5117211;28;20400;-69
2021/10/10 16:33:12;;;;;;;;;;;;;;;12.00;62.48;100415.22;5116881;28;19928;-69
2021/10/10 16:35:45;;;;;;;;;;;;;;;12.00;62.26;100414.34;5117212;28;19924;-69
2021/10/10 16:38:31;;;;;;;;;;;;;;;11.93;62.67;100418.59;5116818;28;20386;-69
2021/10/10 16:44:09;;;;;;;;;;;;;;;11.76;63.61;100425.28;5116779;28;19956;-69
2021/10/10 16:46:38;;;;;;;;;;;;;;;11.67;64.81;100424.34;5116944;28;20377;-69
2021/10/10 16:49:07;;;;;;;;;;;;;;;11.58;65.24;100429.41;5116549;28;19924;-69
2021/10/10 16:51:36;;;;;;;;;;;;;;;11.43;65.62;100427.59;5116426;28;19924;-69
2021/10/10 16:54:04;;;;;;;;;;;;;;;11.50;65.37;100429.34;5116671;28;20400;-69
2021/10/10 16:56:35;;;;;;;;;;;;;;;11.59;64.99;100426.00;5116236;28;20023;-69
2021/10/10 16:59:07;;;;;;;;;;;;;;;11.62;65.19;100429.44;5116329;28;19923;-69
2021/10/10 17:01:37;;;;;;;;;;;;;;;11.73;64.86;100424.44;5116436;28;19924;-69
2021/10/10 17:04:07;;;;;;;;;;;;;;;11.80;64.53;100429.59;5116389;28;19923;-69
2021/10/10 17:06:36;;;;;;;;;;;;;;;11.83;64.98;100432.16;5116243;28;19930;-69
2021/10/10 17:09:04;;;;;;;;;;;;;;;11.83;65.42;100439.00;5116403;28;19924;-69
2021/10/10 17:11:35;;;;;;;;;;;;;;;11.78;65.54;100435.56;5116269;28;20350;-69
2021/10/10 17:14:17;;;;;;;;;;;;;;;11.77;66.09;100446.63;5116197;28;20301;-69
2021/10/10 17:16:47;;;;;;;;;;;;;;;11.76;66.08;100442.34;5115947;28;19946;-69
2021/10/10 17:19:23;;;;;;;;;;;;;;;11.71;66.65;100436.34;5116018;28;19924;-69
2021/10/10 17:21:53;;;;;;;;;;;;;;;11.68;66.73;100437.19;5115971;28;20026;-69
2021/10/10 17:24:23;;;;;;;;;;;;;;;11.69;66.84;100440.59;5115881;28;19928;-69
2021/10/10 17:26:55;;;;;;;;;;;;;;;11.62;67.85;100437.09;5115962;28;19963;-69
2021/10/10 17:29:25;;;;;;;;;;;;;;;11.57;67.91;100433.66;5115680;28;19924;-69
2021/10/10 17:31:54;;;;;;;;;;;;;;;11.55;68.04;100434.50;5116123;28;19924;-69
2021/10/10 17:34:26;;;;;;;;;;;;;;;11.49;67.83;100432.75;5115555;28;19946;-69
2021/10/10 17:36:55;;;;;;;;;;;;;;;11.49;67.36;100430.22;5115675;28;19930;-69
2021/10/10 17:39:24;;;;;;;;;;;;;;;11.45;67.57;100428.44;5115554;28;20391;-69
2021/10/10 17:41:55;;;;;;;;;;;;;;;11.40;67.74;100430.09;5097471;28;19930;-69
2021/10/10 17:44:26;;;;;;;;;;;;;;;11.38;68.09;100426.69;5115573;28;19930;-69
2021/10/10 17:46:55;;;;;;;;;;;;;;;11.41;68.56;100426.72;5115360;28;20003;-69
2021/10/10 17:49:24;;;;;;;;;;;;;;;11.33;68.67;100429.22;5115432;28;20285;-69
2021/10/10 17:51:53;;;;;;;;;;;;;;;11.33;68.90;100423.25;5097725;28;20464;-69
2021/10/10 17:54:22;;;;;;;;;;;;;;;11.33;68.99;100423.25;5115310;28;19935;-69
2021/10/10 17:56:51;;;;;;;;;;;;;;;11.32;68.37;100422.41;5114946;28;19923;-69
2021/10/10 17:59:24;;;;;;;;;;;;;;;11.36;67.90;100424.13;5115094;28;19930;-69
2021/10/10 18:02:14;;;;;;;;;;;;;;;11.46;67.48;100422.50;5115190;28;19931;-69
2021/10/10 18:12:48;;;;;;;;;;;;;;;11.61;66.65;100425.19;5114980;28;19935;-69
2021/10/10 18:15:23;;;;;;;;;;;;;;;11.59;66.05;100429.41;5115002;28;19970;-69
2021/10/10 18:17:53;;;;;;;;;;;;;;;11.65;65.77;100436.28;5115295;28;19955;-69
2021/10/10 18:20:22;;;;;;;;;;;;;;;11.57;66.02;100428.53;5114778;28;19930;-69
2021/10/10 18:22:52;;;;;;;;;;;;;;;11.65;66.07;100431.16;5113067;28;20464;-69
2021/10/10 18:25:21;;;;;;;;;;;;;;;11.70;65.30;100427.81;5114695;28;20452;-69
2021/10/10 18:27:50;;;;;;;;;;;;;;;11.72;65.35;100431.25;5114612;28;19977;-69
2021/10/10 18:30:19;;;;;;;;;;;;;;;11.72;64.96;100428.69;5096257;28;19930;-69
2021/10/10 18:32:51;;;;;;;;;;;;;;;11.70;65.01;100424.41;5114558;28;19924;-69
2021/10/10 18:35:20;;;;;;;;;;;;;;;11.71;64.84;100426.97;5114717;28;20052;-69
2021/10/10 18:37:52;;;;;;;;;;;;;;;11.71;64.78;100423.56;5114576;28;19924;-69
2021/10/10 18:40:21;;;;;;;;;;;;;;;11.70;64.53;100417.59;5114568;28;19924;-69
2021/10/10 18:42:52;;;;;;;;;;;;;;;11.68;64.76;100415.88;5114325;28;19967;-69
2021/10/10 18:45:21;;;;;;;;;;;;;;;11.69;64.72;100422.69;5114373;28;19924;-68
2021/10/10 18:47:55;;;;;;;;;;;;;;;11.71;64.59;100419.28;5114358;28;19928;-69
2021/10/10 18:50:23;;;;;;;;;;;;;;;11.73;64.64;100415.06;5114413;28;19924;-69
2021/10/10 18:52:52;;;;;;;;;;;;;;;11.74;64.41;100424.44;5114706;28;19924;-69
2021/10/10 18:55:22;;;;;;;;;;;;;;;11.74;64.48;100421.88;5114267;28;19924;-70
2021/10/10 18:57:50;;;;;;;;;;;;;;;11.69;64.64;100423.53;5114333;28;19927;-69
2021/10/10 19:00:19;;;;;;;;;;;;;;;11.65;64.79;100426.91;5114249;28;20266;-69
2021/10/10 19:02:51;;;;;;;;;;;;;;;11.61;64.85;100424.31;5114298;28;19924;-69
2021/10/10 19:05:25;;;;;;;;;;;;;;;11.59;64.78;100426.00;5114649;28;19973;-69
2021/10/10 19:07:55;;;;;;;;;;;;;;;11.50;65.38;100421.66;5114714;28;20103;-69
2021/10/10 19:10:49;;;;;;;;;;;;;;;11.54;65.38;100428.50;5115152;28;19934;-69
2021/10/10 19:13:18;;;;;;;;;;;;;;;11.57;64.68;100423.44;5114243;28;19924;-69
2021/10/10 19:15:47;;;;;;;;;;;;;;;11.55;64.16;100425.13;5114195;28;19959;-69
2021/10/10 19:18:16;;;;;;;;;;;;;;;11.51;63.86;100422.53;5116335;28;19931;-69
2021/10/10 19:20:51;;;;;;;;;;;;;;;11.45;64.53;100423.34;5118204;28;19934;-69
2021/10/10 19:23:20;;;;;;;;;;;;;;;11.45;64.67;100423.34;5118319;28;19924;-69
2021/10/10 19:25:52;;;;;;;;;;;;;;;11.43;64.51;100425.03;5118174;28;19950;-69
2021/10/10 19:28:24;;;;;;;;;;;;;;;11.46;65.06;100430.16;5118201;28;19930;-69
2021/10/10 19:30:59;;;;;;;;;;;;;;;11.42;64.55;100429.28;5118186;28;20010;-69
2021/10/10 19:33:48;;;;;;;;;;;;;;;11.37;65.13;100436.06;5118218;28;19924;-68
2021/10/10 19:36:21;;;;;;;;;;;;;;;11.33;65.19;100438.56;5118014;28;19930;-69
2021/10/10 19:38:53;;;;;;;;;;;;;;;11.33;65.33;100430.91;5118047;28;19924;-69
2021/10/10 19:41:27;;;;;;;;;;;;;;;11.34;65.66;100428.38;5117982;28;20300;-69
2021/10/10 19:44:02;;;;;;;;;;;;;;;11.33;66.21;100433.47;5117939;28;20385;-69
2021/10/10 19:46:34;;;;;;;;;;;;;;;11.35;66.18;100427.53;5117877;28;19924;-69
2021/10/10 19:49:06;;;;;;;;;;;;;;;11.35;66.05;100427.53;5117843;28;19928;-70
2021/10/10 19:51:36;;;;;;;;;;;;;;;11.38;66.20;100427.56;5117758;28;19924;-69
2021/10/10 19:54:09;;;;;;;;;;;;;;;11.38;66.16;100426.69;5117715;28;19969;-69
2021/10/10 19:56:40;;;;;;;;;;;;;;;11.34;66.54;100422.41;5116856;28;20432;-69
2021/10/10 19:59:21;;;;;;;;;;;;;;;11.30;66.80;100426.63;5117940;28;19924;-69
2021/10/10 20:01:53;;;;;;;;;;;;;;;11.26;66.71;100431.69;5117523;28;19928;-70
2021/10/10 20:04:25;;;;;;;;;;;;;;;11.23;67.21;100429.09;5117550;28;19924;-69
2021/10/10 20:06:56;;;;;;;;;;;;;;;11.22;67.93;100427.41;5117756;28;19988;-69
2021/10/10 20:09:28;;;;;;;;;;;;;;;11.13;68.21;100422.22;5117382;28;19930;-69
2021/10/10 20:11:59;;;;;;;;;;;;;;;11.09;68.44;100423.03;5117676;28;20335;-69
2021/10/10 20:14:31;;;;;;;;;;;;;;;11.07;68.80;100417.06;5117352;28;19931;-69
2021/10/10 20:17:02;;;;;;;;;;;;;;;11.03;69.17;100425.53;5117245;28;19959;-69
2021/10/10 20:19:36;;;;;;;;;;;;;;;11.04;69.41;100424.69;5117252;28;19924;-69
2021/10/10 20:22:07;;;;;;;;;;;;;;;11.04;69.40;100424.69;5117106;28;19924;-69
2021/10/10 20:24:35;;;;;;;;;;;;;;;11.03;69.76;100413.63;5117152;28;19966;-69
2021/10/10 20:27:08;;;;;;;;;;;;;;;11.02;69.71;100421.25;5117434;28;19930;-69
2021/10/10 20:29:40;;;;;;;;;;;;;;;11.01;69.42;100422.13;5116654;28;19928;-69
2021/10/10 20:32:12;;;;;;;;;;;;;;;11.01;69.65;100419.56;5117001;28;19931;-70
2021/10/10 20:34:44;;;;;;;;;;;;;;;11.03;69.73;100418.75;5116997;28;19924;-69
2021/10/10 20:37:18;;;;;;;;;;;;;;;11.03;69.48;100417.88;5116895;28;19924;-69
2021/10/10 20:39:50;;;;;;;;;;;;;;;11.02;69.66;100416.16;5117180;28;19931;-69
2021/10/10 20:42:24;;;;;;;;;;;;;;;10.98;69.32;100419.53;5098595;28;19923;-69
2021/10/10 20:44:55;;;;;;;;;;;;;;;10.95;69.26;100419.50;5116768;28;20395;-69
2021/10/10 20:47:27;;;;;;;;;;;;;;;10.91;69.77;100412.66;5116743;28;19931;-69
2021/10/10 20:49:59;;;;;;;;;;;;;;;10.86;68.96;100414.31;5098537;28;19975;-69
2021/10/10 20:52:36;;;;;;;;;;;;;;;10.82;69.42;100407.47;5116585;28;20357;-69
2021/10/10 20:55:08;;;;;;;;;;;;;;;10.74;69.69;100404.81;5116877;28;19924;-69
2021/10/10 20:57:40;;;;;;;;;;;;;;;10.70;69.31;100409.03;5116322;28;19924;-70
2021/10/10 21:00:13;;;;;;;;;;;;;;;10.69;69.20;100411.56;5116434;28;19967;-69
2021/10/10 21:02:45;;;;;;;;;;;;;;;10.71;69.25;100404.78;5116658;28;20010;-69
2021/10/10 21:05:21;;;;;;;;;;;;;;;10.72;69.28;100404.78;5116425;28;19970;-69
2021/10/10 21:07:54;;;;;;;;;;;;;;;10.72;69.42;100402.25;5116354;28;19935;-69
2021/10/10 21:10:26;;;;;;;;;;;;;;;10.76;69.81;100401.44;5116279;28;19928;-69
2021/10/10 21:13:01;;;;;;;;;;;;;;;10.78;69.34;100404.88;5116250;28;20274;-69
2021/10/10 21:15:38;;;;;;;;;;;;;;;10.78;69.63;100406.56;5116499;28;20327;-69
2021/10/10 21:18:11;;;;;;;;;;;;;;;10.78;69.96;100392.09;5116131;28;19931;-69
2021/10/10 21:20:43;;;;;;;;;;;;;;;10.81;69.21;100401.50;5116092;28;19927;-69
2021/10/10 21:23:16;;;;;;;;;;;;;;;10.82;69.40;100397.25;5116142;28;19924;-69
2021/10/10 21:25:49;;;;;;;;;;;;;;;10.77;70.25;100394.66;5115959;28;20004;-69
2021/10/10 21:31:16;;;;;;;;;;;;;;;10.77;69.90;100384.44;5116123;28;20400;-69
2021/10/10 21:33:59;;;;;;;;;;;;;;;10.74;69.98;100387.81;5116136;28;19923;-70
2021/10/10 21:36:31;;;;;;;;;;;;;;;10.74;69.95;100380.16;5116018;28;20360;-70
2021/10/10 21:39:04;;;;;;;;;;;;;;;10.71;70.38;100380.13;5116066;28;19924;-70
2021/10/10 21:41:33;;;;;;;;;;;;;;;10.67;70.23;100386.03;5114694;28;20022;-69
2021/10/10 21:44:07;;;;;;;;;;;;;;;10.65;70.28;100374.09;5115546;28;19924;-69
2021/10/10 21:46:40;;;;;;;;;;;;;;;10.59;70.51;100374.88;5115933;28;19925;-69
2021/10/10 21:49:12;;;;;;;;;;;;;;;10.54;70.79;100381.63;5115509;28;19923;-69
2021/10/10 21:51:47;;;;;;;;;;;;;;;10.53;70.61;100385.00;5115783;28;19924;-69
2021/10/10 21:54:18;;;;;;;;;;;;;;;10.50;71.14;100379.91;5115419;28;19930;-68
2021/10/10 21:56:49;;;;;;;;;;;;;;;10.47;70.93;100379.00;5115198;28;19946;-68
2021/10/10 21:59:22;;;;;;;;;;;;;;;10.46;71.26;100374.75;5115292;28;19928;-68
2021/10/10 22:01:59;;;;;;;;;;;;;;;10.46;71.10;100373.03;5115459;28;19924;-69
2021/10/10 22:04:31;;;;;;;;;;;;;;;10.46;70.71;100373.03;5115192;28;20382;-68
2021/10/10 22:07:06;;;;;;;;;;;;;;;10.46;71.19;100373.03;5115155;28;19928;-69
2021/10/10 22:09:40;;;;;;;;;;;;;;;10.46;71.38;100367.94;5115081;28;19924;-69
2021/10/10 22:12:12;;;;;;;;;;;;;;;10.47;71.08;100363.69;5114934;28;19928;-69
2021/10/10 22:14:43;;;;;;;;;;;;;;;10.45;71.11;100361.13;5115686;28;19924;-68
2021/10/10 22:17:15;;;;;;;;;;;;;;;10.46;70.48;100356.88;5115326;28;20282;-68
2021/10/10 22:19:50;;;;;;;;;;;;;;;10.45;70.33;100361.13;5114988;28;19940;-69
2021/10/10 22:22:23;;;;;;;;;;;;;;;10.47;70.07;100363.69;5115077;28;20006;-68
2021/10/10 22:25:03;;;;;;;;;;;;;;;10.43;70.46;100357.72;5114879;28;19947;-69
2021/10/10 22:27:40;;;;;;;;;;;;;;;10.40;70.21;100356.81;5114850;28;19924;-69
2021/10/10 22:32:47;;;;;;;;;;;;;;;10.40;70.26;100349.16;5114670;28;20015;-69
2021/10/10 22:35:19;;;;;;;;;;;;;;;10.42;70.28;100355.13;5115000;28;19923;-69
2021/10/10 22:37:48;;;;;;;;;;;;;;;10.41;70.41;100348.31;5114699;28;19977;-69
2021/10/10 22:40:19;;;;;;;;;;;;;;;10.48;70.32;100350.97;5114697;28;19923;-69
2021/10/10 22:42:48;;;;;;;;;;;;;;;10.47;70.04;100343.28;5114528;28;19924;-69
2021/10/10 22:45:20;;;;;;;;;;;;;;;10.44;69.17;100348.34;5114771;28;19992;-69
2021/10/10 22:47:53;;;;;;;;;;;;;;;10.40;69.77;100344.06;5114593;28;20351;-69
2021/10/10 22:50:28;;;;;;;;;;;;;;;10.40;69.31;100337.25;5114852;28;19924;-69
2021/10/10 22:53:00;;;;;;;;;;;;;;;10.40;69.66;100337.25;5114251;28;19924;-69
2021/10/10 22:55:31;;;;;;;;;;;;;;;10.36;70.00;100335.53;5114250;28;19951;-69
2021/10/10 22:58:03;;;;;;;;;;;;;;;10.29;70.47;100333.75;5114735;28;20350;-69
2021/10/10 23:00:33;;;;;;;;;;;;;;;10.33;70.42;100332.06;5114429;28;19945;-69
2021/10/10 23:03:05;;;;;;;;;;;;;;;10.32;69.79;100332.94;5114222;28;19969;-68
2021/10/10 23:05:34;;;;;;;;;;;;;;;10.27;70.44;100325.19;5114291;28;19927;-69
2021/10/10 23:08:02;;;;;;;;;;;;;;;10.17;70.18;100320.84;5114581;28;20334;-69
2021/10/10 23:10:33;;;;;;;;;;;;;;;10.04;70.32;100317.28;5114366;28;20014;-68
2021/10/10 23:13:02;;;;;;;;;;;;;;;10.01;71.23;100324.00;5114360;28;19924;-68
2021/10/10 23:15:31;;;;;;;;;;;;;;;9.98;70.71;100316.34;5114250;28;20014;-69
2021/10/10 23:17:59;;;;;;;;;;;;;;;9.94;71.38;100324.78;5114169;28;20006;-69
2021/10/10 23:20:37;;;;;;;;;;;;;;;9.95;71.54;100331.59;5114166;28;19938;-69
2021/10/10 23:23:09;;;;;;;;;;;;;;;9.95;71.46;100326.50;5114218;28;20377;-69
2021/10/10 23:25:43;;;;;;;;;;;;;;;9.98;70.91;100319.72;5114170;28;19942;-68
2021/10/10 23:28:12;;;;;;;;;;;;;;;9.90;71.25;100316.25;5114100;28;20022;-68
2021/10/10 23:30:44;;;;;;;;;;;;;;;9.85;71.88;100314.47;5114065;28;19924;-68
2021/10/10 23:33:16;;;;;;;;;;;;;;;9.79;71.82;100311.88;5114477;28;19930;-69
2021/10/10 23:35:48;;;;;;;;;;;;;;;9.79;72.46;100309.31;5114389;28;20292;-69
2021/10/10 23:38:20;;;;;;;;;;;;;;;9.74;72.24;100314.34;5114008;28;19924;-69
2021/10/10 23:40:51;;;;;;;;;;;;;;;9.74;71.99;100305.84;5114710;28;19928;-69
2021/10/10 23:43:23;;;;;;;;;;;;;;;9.81;72.47;100302.53;5114161;28;19923;-69
2021/10/10 23:45:55;;;;;;;;;;;;;;;9.80;71.59;100300.81;5113994;28;19973;-69
2021/10/10 23:48:24;;;;;;;;;;;;;;;9.76;71.65;100304.19;5113972;28;19931;-69
2021/10/10 23:50:56;;;;;;;;;;;;;;;9.81;71.35;100307.63;5113871;28;19924;-69
2021/10/10 23:53:28;;;;;;;;;;;;;;;9.85;72.05;100309.38;5113951;28;19928;-69
2021/10/10 23:55:58;;;;;;;;;;;;;;;9.90;72.11;100307.75;5113916;28;20002;-69
2021/10/10 23:58:30;;;;;;;;;;;;;;;9.90;72.03;100302.66;5113945;28;20347;-69
